Valencia, Pennsylvania
Current Conditions -  °F | °C
As of 4:35 PM on Saturday 20 Dec 2014 (Local Time) from KBTP Reporting Station
Overcast Overcast  
Wind Chill: -2°   Ceiling: 2100
Heat Index: -2°   Visibility: 10mi
Dew Point: -7°   Wind: 3mph
Humidity: 69%   Direction: 290°WNW
Pressure: 30.25"   Gusts: NA
Location:  40.68°N, 79.99°W
Report Text: KBTP 202135Z AUTO 29003KT 10SM OVC021 M02/M07 A3025 RMK AO1
Loading
Personal Weather Stations






























Interactive Weather Map New forecast layout! Learn more

10-Day Weather Forecast

Advertisements
Track Severe Weather on mobile